Time;durP1;ratioP1;P1;durP2;ratioP2;P2;SDS_P1;SDS_P2;PMS_P1;PMS_P2;Temp;Humidity;BMP_temperature;BMP_pressure;BME280_temperature;BME280_humidity;BME280_pressure;Samples;Min_cycle;Max_cycle;Signal;HPM_P1;HPM_P2
2021/10/23 00:00:14;;;;;;;;;;;;;;;14.05;71.94;102105.16;1047773;28;1651;-58
2021/10/23 00:01:05;;;;;;;;;;;;;;;14.06;71.90;102106.00;1050765;28;981;-58
2021/10/23 00:01:55;;;;;;;;;;;;;;;14.05;72.33;102105.16;1050995;28;629;-59
2021/10/23 00:02:46;;;;;;;;;;;;;;;14.06;72.24;102106.00;1050982;28;675;-58
2021/10/23 00:03:36;;;;;;;;;;;;;;;14.06;71.94;102114.06;1050290;28;867;-60
2021/10/23 00:04:26;;;;;;;;;;;;;;;14.06;72.73;102111.38;1050789;28;617;-60
2021/10/23 00:05:17;;;;;;;;;;;;;;;14.04;72.20;102100.75;1050551;28;710;-60
2021/10/23 00:06:07;;;;;;;;;;;;;;;14.05;72.59;102105.16;1050850;28;629;-59
2021/10/23 00:06:58;;;;;;;;;;;;;;;14.06;72.53;102108.69;1050826;28;700;-59
2021/10/23 00:07:48;;;;;;;;;;;;;;;14.06;71.92;102104.19;1050970;28;826;-60
2021/10/23 00:08:39;;;;;;;;;;;;;;;14.04;71.94;102108.78;1050711;28;625;-60
2021/10/23 00:09:29;;;;;;;;;;;;;;;14.05;72.35;102112.34;1050857;28;843;-59
2021/10/23 00:10:20;;;;;;;;;;;;;;;14.04;72.56;102102.56;1050871;28;723;-59
2021/10/23 00:11:11;;;;;;;;;;;;;;;14.02;72.28;102108.00;1049158;28;681;-60
2021/10/23 00:12:01;;;;;;;;;;;;;;;14.04;71.93;102110.59;1049229;28;697;-60
2021/10/23 00:12:52;;;;;;;;;;;;;;;14.03;72.63;102101.69;1050098;28;899;-60
2021/10/23 00:13:42;;;;;;;;;;;;;;;14.03;72.45;102101.69;1050814;28;727;-60
2021/10/23 00:14:33;;;;;;;;;;;;;;;14.03;72.24;102101.69;1050636;28;1897;-60
2021/10/23 00:15:23;;;;;;;;;;;;;;;14.03;72.59;102109.75;1050945;28;672;-61
2021/10/23 00:16:14;;;;;;;;;;;;;;;14.03;72.01;102098.16;1050508;28;2091;-59
2021/10/23 00:17:04;;;;;;;;;;;;;;;14.02;72.40;102108.00;1050813;28;681;-60
2021/10/23 00:17:54;;;;;;;;;;;;;;;14.03;72.62;102100.84;1050736;28;1866;-61
2021/10/23 00:18:45;;;;;;;;;;;;;;;14.04;72.44;102107.91;1046264;28;649;-59
2021/10/23 00:19:35;;;;;;;;;;;;;;;14.02;71.80;102108.00;1046290;28;629;-59
2021/10/23 00:20:26;;;;;;;;;;;;;;;14.03;72.71;102109.75;1046310;28;653;-60
2021/10/23 00:21:16;;;;;;;;;;;;;;;14.03;72.19;102103.50;1045719;28;708;-60
2021/10/23 00:22:06;;;;;;;;;;;;;;;14.03;72.02;102098.16;1046288;28;829;-60
2021/10/23 00:22:57;;;;;;;;;;;;;;;14.03;71.68;102095.47;1046386;28;707;-60
2021/10/23 00:23:47;;;;;;;;;;;;;;;14.03;71.74;102095.47;1046406;28;637;-60
2021/10/23 00:24:38;;;;;;;;;;;;;;;14.01;72.58;102095.56;1046433;28;657;-60
2021/10/23 00:25:28;;;;;;;;;;;;;;;14.02;72.19;102091.94;1046244;28;681;-59
2021/10/23 00:26:18;;;;;;;;;;;;;;;14.02;72.51;102096.44;1046186;28;908;-59
2021/10/23 00:27:09;;;;;;;;;;;;;;;14.02;72.19;102099.09;1046386;28;657;-59
2021/10/23 00:27:59;;;;;;;;;;;;;;;14.01;71.98;102098.25;1045348;28;1961;-59
2021/10/23 00:28:50;;;;;;;;;;;;;;;14.02;72.38;102096.44;1047459;28;699;-60
2021/10/23 00:29:40;;;;;;;;;;;;;;;14.01;72.62;102108.09;1046337;28;696;-59
2021/10/23 00:30:30;;;;;;;;;;;;;;;14.02;72.08;102110.69;1046183;28;944;-60
2021/10/23 00:31:21;;;;;;;;;;;;;;;14.02;71.92;102107.16;1046323;28;637;-60
2021/10/23 00:32:11;;;;;;;;;;;;;;;14.01;71.60;102111.63;1046307;28;668;-59
2021/10/23 00:33:02;;;;;;;;;;;;;;;14.01;71.68;102106.28;1045312;28;786;-60
2021/10/23 00:33:53;;;;;;;;;;;;;;;14.01;72.66;102111.63;1046382;28;641;-59
2021/10/23 00:34:43;;;;;;;;;;;;;;;14.00;71.77;102109.03;1046279;28;1957;-59
2021/10/23 00:35:34;;;;;;;;;;;;;;;13.99;72.21;102101.97;1046374;28;676;-59
2021/10/23 00:36:24;;;;;;;;;;;;;;;13.99;72.27;102108.19;1048323;28;1451;-60
2021/10/23 00:37:14;;;;;;;;;;;;;;;14.00;72.63;102109.91;1049176;28;779;-60
2021/10/23 00:38:05;;;;;;;;;;;;;;;14.00;71.83;102114.41;1048901;28;2159;-59
2021/10/23 00:38:55;;;;;;;;;;;;;;;14.00;72.29;102120.63;1049629;28;848;-59
2021/10/23 00:39:46;;;;;;;;;;;;;;;13.99;72.08;102108.19;1049983;28;688;-59
2021/10/23 00:40:36;;;;;;;;;;;;;;;14.00;71.67;102111.72;1045360;28;771;-58
2021/10/23 00:41:27;;;;;;;;;;;;;;;13.99;72.77;102108.19;1045439;28;641;-59
2021/10/23 00:42:17;;;;;;;;;;;;;;;14.00;72.17;102109.03;1049821;28;710;-59
2021/10/23 00:43:10;;;;;;;;;;;;;;;13.99;72.49;102110.88;1049614;28;1025;-59
2021/10/23 00:44:00;;;;;;;;;;;;;;;13.98;72.53;102114.50;1049960;28;681;-59
2021/10/23 00:44:50;;;;;;;;;;;;;;;13.97;72.50;102110.13;1049767;28;850;-59
2021/10/23 00:45:41;;;;;;;;;;;;;;;13.97;71.93;102119.97;1049789;28;700;-59
2021/10/23 00:46:31;;;;;;;;;;;;;;;13.97;71.97;102114.63;1050968;28;605;-59
2021/10/23 00:47:22;;;;;;;;;;;;;;;13.95;71.96;102114.69;1049769;28;871;-59
2021/10/23 00:48:13;;;;;;;;;;;;;;;13.97;72.85;102114.63;1048806;28;748;-59
2021/10/23 00:49:03;;;;;;;;;;;;;;;13.97;72.58;102118.16;1049747;28;882;-59
2021/10/23 00:49:54;;;;;;;;;;;;;;;13.96;72.07;102111.06;1049849;28;614;-59
2021/10/23 00:50:45;;;;;;;;;;;;;;;13.97;72.48;102118.16;1050955;28;621;-59
2021/10/23 00:51:35;;;;;;;;;;;;;;;13.97;72.37;102110.13;1045427;28;2112;-59
2021/10/23 00:52:25;;;;;;;;;;;;;;;13.98;72.59;102105.59;1050004;28;788;-59
2021/10/23 00:53:16;;;;;;;;;;;;;;;13.97;72.59;102109.25;1053906;28;884;-59
2021/10/23 00:54:06;;;;;;;;;;;;;;;13.97;71.85;102111.94;1053195;28;739;-59
2021/10/23 00:54:57;;;;;;;;;;;;;;;13.98;72.21;102119.00;1053416;28;1989;-59
2021/10/23 00:55:47;;;;;;;;;;;;;;;13.96;72.01;102112.88;1053384;28;869;-59
2021/10/23 00:56:37;;;;;;;;;;;;;;;13.97;71.85;102115.47;1048879;28;712;-60
2021/10/23 00:57:28;;;;;;;;;;;;;;;13.98;72.13;102108.28;1048960;28;753;-59
2021/10/23 00:58:18;;;;;;;;;;;;;;;13.96;72.47;102111.06;1052981;28;1008;-60
2021/10/23 00:59:09;;;;;;;;;;;;;;;13.96;72.50;102113.75;1053478;28;661;-59
2021/10/23 00:59:59;;;;;;;;;;;;;;;13.97;72.33;102109.25;1053373;28;637;-59
2021/10/23 01:00:50;;;;;;;;;;;;;;;13.97;71.80;102115.47;1053453;28;657;-59
2021/10/23 01:01:40;;;;;;;;;;;;;;;13.97;72.55;102104.75;1054452;28;869;-59
2021/10/23 01:02:31;;;;;;;;;;;;;;;13.97;72.30;102109.25;1050507;28;1912;-59
2021/10/23 01:03:21;;;;;;;;;;;;;;;13.98;72.50;102111.81;1049290;28;645;-59
2021/10/23 01:04:11;;;;;;;;;;;;;;;13.98;71.83;102116.31;1050333;28;838;-60
2021/10/23 01:05:02;;;;;;;;;;;;;;;13.97;72.76;102114.63;1050312;28;697;-59
2021/10/23 01:05:52;;;;;;;;;;;;;;;13.96;71.82;102111.06;1050919;28;854;-59
2021/10/23 01:06:43;;;;;;;;;;;;;;;13.96;72.20;102112.88;1049708;28;746;-60
2021/10/23 01:07:33;;;;;;;;;;;;;;;13.97;72.86;102114.63;1049685;28;912;-59
2021/10/23 01:08:23;;;;;;;;;;;;;;;13.96;72.74;102116.44;1050264;28;720;-60
2021/10/23 01:09:14;;;;;;;;;;;;;;;13.96;72.60;102110.22;1049861;28;697;-59
2021/10/23 01:10:04;;;;;;;;;;;;;;;13.95;72.83;102103.13;1049592;28;809;-60
2021/10/23 01:10:55;;;;;;;;;;;;;;;13.95;71.99;102105.81;1049381;28;1881;-59
2021/10/23 01:11:45;;;;;;;;;;;;;;;13.95;72.08;102103.97;1049758;28;633;-60
2021/10/23 01:12:35;;;;;;;;;;;;;;;13.96;72.57;102102.16;1049310;28;2004;-60
2021/10/23 01:13:26;;;;;;;;;;;;;;;13.96;72.60;102104.84;1049389;28;1837;-59
2021/10/23 01:14:17;;;;;;;;;;;;;;;13.95;72.77;102098.63;1050772;28;752;-60
2021/10/23 01:15:07;;;;;;;;;;;;;;;13.96;71.83;102104.84;1050801;28;850;-60
2021/10/23 01:15:57;;;;;;;;;;;;;;;13.95;71.67;102106.66;1049671;28;634;-59
2021/10/23 01:16:48;;;;;;;;;;;;;;;13.94;71.76;102107.63;1049731;28;1154;-60
2021/10/23 01:17:38;;;;;;;;;;;;;;;13.95;72.67;102112.03;1049600;28;689;-60
2021/10/23 01:18:29;;;;;;;;;;;;;;;13.94;72.50;102104.94;1049576;28;817;-60
2021/10/23 01:19:19;;;;;;;;;;;;;;;13.95;72.26;102108.47;1050892;28;826;-59
2021/10/23 01:20:10;;;;;;;;;;;;;;;13.95;71.86;102106.66;1049738;28;637;-60
2021/10/23 01:21:00;;;;;;;;;;;;;;;13.94;72.69;102104.06;1049819;28;623;-60
2021/10/23 01:21:50;;;;;;;;;;;;;;;13.94;72.86;102104.06;1049067;28;1948;-60
2021/10/23 01:22:41;;;;;;;;;;;;;;;13.94;72.73;102104.94;1045939;28;1988;-59
2021/10/23 01:23:31;;;;;;;;;;;;;;;13.95;72.04;102111.16;1043689;28;669;-60
2021/10/23 01:24:23;;;;;;;;;;;;;;;13.94;72.38;102107.63;1047894;28;1938;-59
2021/10/23 01:25:13;;;;;;;;;;;;;;;13.94;72.42;102106.75;1048457;28;646;-60
2021/10/23 01:26:04;;;;;;;;;;;;;;;13.92;72.86;102106.84;1049758;28;791;-60
2021/10/23 01:26:55;;;;;;;;;;;;;;;13.93;71.98;102108.56;1048357;28;1255;-60
2021/10/23 01:27:45;;;;;;;;;;;;;;;13.93;71.85;102102.34;1049223;28;1876;-60
2021/10/23 01:28:35;;;;;;;;;;;;;;;13.92;72.82;102109.53;1050770;28;818;-59
2021/10/23 01:29:26;;;;;;;;;;;;;;;13.92;72.08;102101.47;1049717;28;824;-60
2021/10/23 01:30:16;;;;;;;;;;;;;;;13.90;72.76;102101.56;1049575;28;630;-60
2021/10/23 01:31:07;;;;;;;;;;;;;;;13.90;72.71;102098.03;1049667;28;847;-60
2021/10/23 01:31:57;;;;;;;;;;;;;;;13.89;72.58;102107.88;1049744;28;798;-60
2021/10/23 01:32:48;;;;;;;;;;;;;;;13.90;71.94;102104.25;1048529;28;726;-60
2021/10/23 01:33:38;;;;;;;;;;;;;;;13.89;72.50;102104.34;1050815;28;613;-59
2021/10/23 01:34:29;;;;;;;;;;;;;;;13.90;72.83;102100.69;1049118;28;1653;-59
2021/10/23 01:35:19;;;;;;;;;;;;;;;13.89;72.74;102104.34;1051114;28;834;-60
2021/10/23 01:36:10;;;;;;;;;;;;;;;13.89;72.50;102104.34;1051333;28;1669;-61
2021/10/23 01:37:01;;;;;;;;;;;;;;;13.89;72.83;102099.84;1049497;28;872;-60
2021/10/23 01:37:52;;;;;;;;;;;;;;;13.89;72.00;102105.19;1049034;28;633;-60
2021/10/23 01:38:42;;;;;;;;;;;;;;;13.89;72.03;102107.00;1049176;28;646;-60
2021/10/23 01:39:33;;;;;;;;;;;;;;;13.89;72.74;102105.19;1048934;28;637;-60
2021/10/23 01:40:23;;;;;;;;;;;;;;;13.88;72.09;102106.16;1050633;28;659;-60
2021/10/23 01:41:13;;;;;;;;;;;;;;;13.88;72.61;102099.94;1048862;28;842;-60
2021/10/23 01:42:04;;;;;;;;;;;;;;;13.89;71.99;102109.69;1049095;28;673;-60
2021/10/23 01:42:55;;;;;;;;;;;;;;;13.88;72.34;102100.78;1049327;28;1047;-60
2021/10/23 01:43:45;;;;;;;;;;;;;;;13.87;71.95;102106.25;1049240;28;773;-60
2021/10/23 01:44:35;;;;;;;;;;;;;;;13.88;71.99;102099.94;1048874;28;670;-60
2021/10/23 01:45:26;;;;;;;;;;;;;;;13.87;72.97;102099.06;1049018;28;719;-60
2021/10/23 01:46:17;;;;;;;;;;;;;;;13.87;71.90;102104.44;1049007;28;1012;-61
2021/10/23 01:47:08;;;;;;;;;;;;;;;13.87;72.35;102103.56;1046019;28;673;-61
2021/10/23 01:47:58;;;;;;;;;;;;;;;13.88;72.47;102105.28;1045545;28;641;-61
2021/10/23 01:48:48;;;;;;;;;;;;;;;13.88;71.79;102105.28;1045433;28;700;-60
2021/10/23 01:49:39;;;;;;;;;;;;;;;13.89;72.04;102104.34;1045394;28;849;-61
2021/10/23 01:50:29;;;;;;;;;;;;;;;13.90;72.15;102108.75;1045307;28;705;-60
2021/10/23 01:51:20;;;;;;;;;;;;;;;13.88;72.78;102091.88;1045383;28;638;-61
2021/10/23 01:52:10;;;;;;;;;;;;;;;13.89;71.95;102104.34;1045976;28;653;-60
2021/10/23 01:53:01;;;;;;;;;;;;;;;13.88;72.21;102100.78;1045965;28;629;-61
2021/10/23 01:53:51;;;;;;;;;;;;;;;13.88;72.67;102102.59;1046963;28;1202;-61
2021/10/23 01:54:41;;;;;;;;;;;;;;;13.88;72.31;102102.59;1047150;28;1982;-61
2021/10/23 01:55:32;;;;;;;;;;;;;;;13.88;72.01;102108.84;1046777;28;657;-61
2021/10/23 01:56:22;;;;;;;;;;;;;;;13.86;72.30;102108.06;1045356;28;720;-61
2021/10/23 01:57:13;;;;;;;;;;;;;;;13.87;72.80;102108.91;1045875;28;673;-61
2021/10/23 01:58:03;;;;;;;;;;;;;;;13.87;71.88;102119.63;1045672;28;1347;-60
2021/10/23 01:58:54;;;;;;;;;;;;;;;13.86;72.75;102116.09;1046006;28;708;-60
2021/10/23 01:59:44;;;;;;;;;;;;;;;13.87;71.97;102120.50;1046054;28;649;-60
2021/10/23 02:00:34;;;;;;;;;;;;;;;13.86;71.83;102124.13;1045893;28;638;-60
2021/10/23 02:01:25;;;;;;;;;;;;;;;13.86;72.04;102123.25;1045990;28;661;-60
2021/10/23 02:02:15;;;;;;;;;;;;;;;13.83;71.99;102135.03;1045844;28;712;-60
2021/10/23 02:03:06;;;;;;;;;;;;;;;13.84;72.50;102130.53;1045997;28;732;-60
2021/10/23 02:03:56;;;;;;;;;;;;;;;13.84;72.60;102136.75;1046053;28;622;-59
2021/10/23 02:04:47;;;;;;;;;;;;;;;13.85;72.74;102134.94;1045940;28;777;-59
2021/10/23 02:05:37;;;;;;;;;;;;;;;13.84;71.71;102131.38;1045936;28;728;-59
2021/10/23 02:06:28;;;;;;;;;;;;;;;13.85;72.57;102132.25;1041883;28;840;-60
2021/10/23 02:07:18;;;;;;;;;;;;;;;13.84;72.24;102134.06;1041476;28;700;-60
2021/10/23 02:08:08;;;;;;;;;;;;;;;13.85;72.05;102132.25;1045296;28;833;-60
2021/10/23 02:08:59;;;;;;;;;;;;;;;13.84;72.13;102131.38;1046042;28;723;-59
2021/10/23 02:09:49;;;;;;;;;;;;;;;13.85;71.93;102134.94;1040917;28;677;-59
2021/10/23 02:10:40;;;;;;;;;;;;;;;13.83;72.52;102128.78;1041397;28;757;-59
2021/10/23 02:11:30;;;;;;;;;;;;;;;13.83;71.87;102134.16;1045756;28;669;-59
2021/10/23 02:12:20;;;;;;;;;;;;;;;13.81;72.24;102128.88;1045891;28;677;-59
2021/10/23 02:13:11;;;;;;;;;;;;;;;13.83;72.02;102128.78;1045780;28;1422;-59
2021/10/23 02:14:01;;;;;;;;;;;;;;;13.82;72.05;102127.06;1045885;28;610;-59
2021/10/23 02:14:52;;;;;;;;;;;;;;;13.83;72.73;102136.84;1045880;28;1961;-59
2021/10/23 02:15:42;;;;;;;;;;;;;;;13.84;72.70;102130.53;1045845;28;647;-60
2021/10/23 02:16:32;;;;;;;;;;;;;;;13.83;71.90;102126.97;1045838;28;739;-59
2021/10/23 02:17:23;;;;;;;;;;;;;;;13.83;71.95;102126.13;1045839;28;644;-59
2021/10/23 02:18:13;;;;;;;;;;;;;;;13.82;72.93;102124.38;1045884;28;772;-59
2021/10/23 02:19:04;;;;;;;;;;;;;;;13.81;72.65;102130.69;1045785;28;883;-60
2021/10/23 02:19:54;;;;;;;;;;;;;;;13.81;73.07;102126.22;1041878;28;685;-59
2021/10/23 02:20:45;;;;;;;;;;;;;;;13.80;72.95;102128.97;1040873;28;823;-59
2021/10/23 02:21:35;;;;;;;;;;;;;;;13.79;72.65;102122.75;1045685;28;1874;-61
2021/10/23 02:22:25;;;;;;;;;;;;;;;13.80;72.95;102126.28;1045134;28;661;-59
2021/10/23 02:23:16;;;;;;;;;;;;;;;13.79;72.49;102127.28;1046254;28;1035;-60
2021/10/23 02:24:06;;;;;;;;;;;;;;;13.80;72.34;102123.63;1046301;28;680;-59
2021/10/23 02:24:57;;;;;;;;;;;;;;;13.80;72.33;102128.97;1046297;28;853;-59
2021/10/23 02:25:47;;;;;;;;;;;;;;;13.80;72.49;102132.50;1046257;28;712;-59
2021/10/23 02:26:37;;;;;;;;;;;;;;;13.82;72.64;102129.75;1046244;28;706;-60
2021/10/23 02:27:28;;;;;;;;;;;;;;;13.82;72.00;102130.63;1046100;28;751;-59
2021/10/23 02:28:18;;;;;;;;;;;;;;;13.84;72.87;102130.53;1045921;28;1134;-59
2021/10/23 02:29:09;;;;;;;;;;;;;;;13.81;72.05;102131.56;1046758;28;633;-59
2021/10/23 02:29:59;;;;;;;;;;;;;;;13.81;72.75;102130.69;1045926;28;657;-59
2021/10/23 02:30:49;;;;;;;;;;;;;;;13.80;72.43;102134.31;1048601;28;1949;-59
2021/10/23 02:31:40;;;;;;;;;;;;;;;13.81;72.01;102131.56;1049444;28;798;-59
2021/10/23 02:32:30;;;;;;;;;;;;;;;13.81;72.07;102126.22;1049270;28;696;-60
2021/10/23 02:33:21;;;;;;;;;;;;;;;13.82;72.46;102127.06;1049332;28;721;-59
2021/10/23 02:34:11;;;;;;;;;;;;;;;13.81;71.90;102119.97;1049525;28;737;-59
2021/10/23 02:35:01;;;;;;;;;;;;;;;13.80;72.02;102126.28;1050535;28;1906;-59
2021/10/23 02:35:52;;;;;;;;;;;;;;;13.80;72.28;102118.25;1049385;28;830;-59
2021/10/23 02:36:42;;;;;;;;;;;;;;;13.80;73.03;102110.22;1045586;28;655;-59
2021/10/23 02:37:33;;;;;;;;;;;;;;;13.80;72.02;102113.75;1046271;28;867;-59
2021/10/23 02:38:23;;;;;;;;;;;;;;;13.79;72.98;102117.38;1046393;28;629;-58
2021/10/23 02:39:14;;;;;;;;;;;;;;;13.80;71.91;102123.63;1046486;28;785;-58
2021/10/23 02:40:04;;;;;;;;;;;;;;;13.80;72.16;102119.13;1046375;28;847;-58
2021/10/23 02:40:56;;;;;;;;;;;;;;;13.79;72.81;102121.91;1047770;28;1848;-58
2021/10/23 02:41:47;;;;;;;;;;;;;;;13.77;71.86;102119.31;1049239;28;651;-58
2021/10/23 02:42:37;;;;;;;;;;;;;;;13.77;72.69;102119.31;1050993;28;656;-59
2021/10/23 02:43:27;;;;;;;;;;;;;;;13.78;72.13;102115.69;1050999;28;659;-58
2021/10/23 02:44:18;;;;;;;;;;;;;;;13.78;72.29;102118.38;1051063;28;950;-59
2021/10/23 02:45:09;;;;;;;;;;;;;;;13.78;72.35;102118.38;1050911;28;687;-59
2021/10/23 02:45:59;;;;;;;;;;;;;;;13.79;72.07;102111.19;1049281;28;918;-59
2021/10/23 02:46:49;;;;;;;;;;;;;;;13.78;72.61;102118.38;1051169;28;693;-59
2021/10/23 02:47:40;;;;;;;;;;;;;;;13.77;72.12;102118.47;1050920;28;696;-60
2021/10/23 02:48:30;;;;;;;;;;;;;;;13.76;71.95;102114.91;1051052;28;672;-59
2021/10/23 02:49:21;;;;;;;;;;;;;;;13.76;72.91;102117.59;1051004;28;681;-60
2021/10/23 02:50:11;;;;;;;;;;;;;;;13.77;72.87;102123.81;1050862;28;867;-59
2021/10/23 02:51:02;;;;;;;;;;;;;;;13.77;72.74;102124.69;1051121;28;744;-59
2021/10/23 02:51:52;;;;;;;;;;;;;;;13.77;72.01;102130.03;1052997;28;1028;-59
2021/10/23 02:52:42;;;;;;;;;;;;;;;13.77;72.02;102134.53;1050192;28;1782;-59
2021/10/23 02:53:33;;;;;;;;;;;;;;;13.77;72.46;102129.19;1046680;28;1139;-59
2021/10/23 02:54:23;;;;;;;;;;;;;;;13.77;72.30;102134.53;1045776;28;882;-58
2021/10/23 02:55:14;;;;;;;;;;;;;;;13.76;72.40;102136.34;1045800;28;610;-58
2021/10/23 02:56:05;;;;;;;;;;;;;;;13.75;72.17;102137.31;1045821;28;689;-58
2021/10/23 02:56:55;;;;;;;;;;;;;;;13.75;72.54;102136.44;1045840;28;658;-59
2021/10/23 02:57:45;;;;;;;;;;;;;;;13.76;72.54;102138.16;1045713;28;787;-59
2021/10/23 02:58:36;;;;;;;;;;;;;;;13.76;71.86;102143.53;1045703;28;757;-59
2021/10/23 02:59:27;;;;;;;;;;;;;;;13.75;72.70;102141.78;1045718;28;754;-59
2021/10/23 03:00:17;;;;;;;;;;;;;;;13.75;72.34;102133.75;1045850;28;689;-59
2021/10/23 03:01:07;;;;;;;;;;;;;;;13.75;72.16;102141.78;1047836;28;1915;-58
2021/10/23 03:01:58;;;;;;;;;;;;;;;13.76;72.97;102140.84;1049363;28;618;-59
2021/10/23 03:02:48;;;;;;;;;;;;;;;13.74;72.73;102138.25;1048578;28;710;-59
2021/10/23 03:03:39;;;;;;;;;;;;;;;13.75;72.41;102147.16;1049327;28;696;-59
2021/10/23 03:04:29;;;;;;;;;;;;;;;13.74;72.37;102143.59;1049433;28;630;-59
2021/10/23 03:05:19;;;;;;;;;;;;;;;13.75;72.52;102148.00;1048641;28;722;-59
2021/10/23 03:06:10;;;;;;;;;;;;;;;13.74;72.51;102146.28;1049467;28;737;-59
2021/10/23 03:07:00;;;;;;;;;;;;;;;13.73;72.81;102139.19;1044743;28;860;-59
2021/10/23 03:07:51;;;;;;;;;;;;;;;13.72;72.33;102142.81;1044869;28;704;-60
2021/10/23 03:08:41;;;;;;;;;;;;;;;13.72;71.98;102139.28;1049311;28;828;-60
2021/10/23 03:09:32;;;;;;;;;;;;;;;13.71;72.37;102141.09;1049239;28;689;-60
2021/10/23 03:10:22;;;;;;;;;;;;;;;13.72;72.45;102148.19;1049416;28;724;-59
2021/10/23 03:11:12;;;;;;;;;;;;;;;13.72;72.73;102148.19;1048251;28;1809;-60
2021/10/23 03:12:03;;;;;;;;;;;;;;;13.71;72.58;102148.28;1050998;28;692;-59
2021/10/23 03:12:53;;;;;;;;;;;;;;;13.70;72.42;102150.09;1050710;28;965;-60
2021/10/23 03:13:44;;;;;;;;;;;;;;;13.70;72.74;102150.09;1051047;28;772;-59
2021/10/23 03:14:35;;;;;;;;;;;;;;;13.71;72.83;102151.81;1049211;28;759;-59
2021/10/23 03:15:25;;;;;;;;;;;;;;;13.72;71.78;102158.03;1050731;28;1152;-58
2021/10/23 03:16:15;;;;;;;;;;;;;;;13.71;71.97;102156.31;1051155;28;711;-58
2021/10/23 03:17:06;;;;;;;;;;;;;;;13.71;71.98;102162.53;1050937;28;852;-59
2021/10/23 03:17:56;;;;;;;;;;;;;;;13.71;72.01;102156.31;1050930;28;921;-58
2021/10/23 03:18:47;;;;;;;;;;;;;;;13.71;72.89;102161.66;1051068;28;684;-59
2021/10/23 03:19:37;;;;;;;;;;;;;;;13.70;72.49;102160.81;1049746;28;869;-59
2021/10/23 03:20:28;;;;;;;;;;;;;;;13.69;72.84;102161.75;1050945;28;665;-60
2021/10/23 03:21:19;;;;;;;;;;;;;;;13.69;72.40;102161.75;1050766;28;803;-59
2021/10/23 03:22:09;;;;;;;;;;;;;;;13.69;72.90;102158.22;1049413;28;641;-59
2021/10/23 03:22:59;;;;;;;;;;;;;;;13.69;72.25;102163.56;1050961;28;1656;-60
2021/10/23 03:23:50;;;;;;;;;;;;;;;13.70;71.98;102162.63;1045763;28;766;-59
2021/10/23 03:24:40;;;;;;;;;;;;;;;13.69;72.76;102172.47;1045862;28;621;-59
2021/10/23 03:25:31;;;;;;;;;;;;;;;13.69;72.31;102166.25;1045606;28;866;-59
2021/10/23 03:26:21;;;;;;;;;;;;;;;13.68;72.38;102168.06;1045684;28;705;-60
2021/10/23 03:27:12;;;;;;;;;;;;;;;13.67;72.79;102166.31;1045596;28;1213;-59
2021/10/23 03:28:02;;;;;;;;;;;;;;;13.67;72.08;102165.47;1045500;28;673;-59
2021/10/23 03:28:53;;;;;;;;;;;;;;;13.69;72.33;102175.16;1045772;28;689;-59
2021/10/23 03:29:45;;;;;;;;;;;;;;;13.68;72.63;102168.06;1045721;28;902;-59
2021/10/23 03:30:36;;;;;;;;;;;;;;;13.69;72.41;102169.78;1045629;28;697;-59
2021/10/23 03:31:26;;;;;;;;;;;;;;;13.67;72.76;102166.31;1045688;28;711;-59
2021/10/23 03:32:17;;;;;;;;;;;;;;;13.68;71.94;102167.19;1046796;28;921;-59
2021/10/23 03:33:10;;;;;;;;;;;;;;;13.69;72.49;102163.56;1045657;28;1411;-59
2021/10/23 03:34:00;;;;;;;;;;;;;;;13.68;72.18;102161.84;1045645;28;926;-59
2021/10/23 03:34:53;;;;;;;;;;;;;;;13.66;71.75;102161.06;1045639;28;1918;-59
2021/10/23 03:35:44;;;;;;;;;;;;;;;13.66;72.71;102164.59;1041508;28;662;-59
2021/10/23 03:36:35;;;;;;;;;;;;;;;13.66;72.88;102161.91;1045101;28;645;-59
2021/10/23 03:37:26;;;;;;;;;;;;;;;13.65;72.72;102162.88;1048523;28;1998;-59
2021/10/23 03:38:16;;;;;;;;;;;;;;;13.66;72.17;102163.72;1050883;28;709;-59
2021/10/23 03:39:07;;;;;;;;;;;;;;;13.65;71.85;102164.69;1050487;28;676;-59
2021/10/23 03:39:57;;;;;;;;;;;;;;;13.65;72.73;102162.88;1050426;28;891;-59
2021/10/23 03:40:47;;;;;;;;;;;;;;;13.65;72.42;102168.22;1050366;28;684;-59
2021/10/23 03:41:40;;;;;;;;;;;;;;;13.66;72.82;102167.28;1050221;28;657;-59
2021/10/23 03:42:30;;;;;;;;;;;;;;;13.65;72.16;102167.34;1049768;28;807;-59
2021/10/23 03:43:21;;;;;;;;;;;;;;;13.64;72.61;102176.34;1050887;28;730;-60
2021/10/23 03:44:11;;;;;;;;;;;;;;;13.63;72.12;102166.59;1050370;28;871;-59
2021/10/23 03:45:02;;;;;;;;;;;;;;;13.63;72.44;102172.81;1050443;28;710;-59
2021/10/23 03:45:53;;;;;;;;;;;;;;;13.62;72.00;102168.38;1041542;28;760;-59
2021/10/23 03:46:43;;;;;;;;;;;;;;;13.63;72.25;102169.25;1040530;28;905;-59
2021/10/23 03:47:34;;;;;;;;;;;;;;;13.61;72.68;102155.97;1041458;28;692;-59
2021/10/23 03:48:24;;;;;;;;;;;;;;;13.62;72.81;102159.50;1045641;28;759;-60
2021/10/23 03:49:15;;;;;;;;;;;;;;;13.62;72.65;102163.03;1045067;28;678;-59
2021/10/23 03:50:05;;;;;;;;;;;;;;;13.62;72.45;102162.16;1045306;28;720;-59
2021/10/23 03:50:55;;;;;;;;;;;;;;;13.61;72.49;102165.84;1045300;28;1057;-59
2021/10/23 03:51:46;;;;;;;;;;;;;;;13.59;72.62;102165.91;1045257;28;693;-58
2021/10/23 03:52:36;;;;;;;;;;;;;;;13.60;72.72;102164.97;1046507;28;637;-59
2021/10/23 03:53:27;;;;;;;;;;;;;;;13.61;72.25;102168.50;1047578;28;609;-59
2021/10/23 03:54:17;;;;;;;;;;;;;;;13.61;72.43;102171.19;1047493;28;703;-59
2021/10/23 03:55:10;;;;;;;;;;;;;;;13.61;72.35;102166.69;1047535;28;1985;-59
2021/10/23 03:56:01;;;;;;;;;;;;;;;13.60;72.84;102178.34;1047467;28;622;-59
2021/10/23 03:56:51;;;;;;;;;;;;;;;13.60;72.01;102170.31;1047430;28;746;-59
2021/10/23 03:57:42;;;;;;;;;;;;;;;13.61;72.84;102176.53;1047526;28;705;-59
2021/10/23 03:58:32;;;;;;;;;;;;;;;13.59;72.72;102181.13;1047506;28;637;-59
2021/10/23 03:59:23;;;;;;;;;;;;;;;13.60;71.98;102181.03;1047547;28;692;-59
2021/10/23 04:00:13;;;;;;;;;;;;;;;13.60;72.61;102173.00;1047463;28;750;-59
2021/10/23 04:01:04;;;;;;;;;;;;;;;13.60;72.62;102178.34;1047485;28;934;-59
2021/10/23 04:01:54;;;;;;;;;;;;;;;13.60;71.92;102175.69;1047399;28;642;-59
2021/10/23 04:02:45;;;;;;;;;;;;;;;13.60;71.96;102177.50;1047572;28;700;-59
2021/10/23 04:03:35;;;;;;;;;;;;;;;13.61;72.68;102173.88;1046853;28;921;-60
2021/10/23 04:04:26;;;;;;;;;;;;;;;13.59;72.85;102179.31;1047009;28;742;-57
2021/10/23 04:05:16;;;;;;;;;;;;;;;13.59;72.08;102181.13;1046324;28;727;-58
2021/10/23 04:06:07;;;;;;;;;;;;;;;13.59;72.80;102173.94;1046483;28;653;-58
2021/10/23 04:06:57;;;;;;;;;;;;;;;13.57;72.53;102175.84;1046446;28;652;-58
2021/10/23 04:07:48;;;;;;;;;;;;;;;13.58;71.86;102166.00;1045881;28;644;-58
2021/10/23 04:08:39;;;;;;;;;;;;;;;13.58;72.43;102169.53;1045694;28;767;-58
2021/10/23 04:09:29;;;;;;;;;;;;;;;13.58;72.70;102172.22;1046289;28;761;-58
2021/10/23 04:10:20;;;;;;;;;;;;;;;13.58;72.38;102166.88;1046418;28;743;-58
2021/10/23 04:11:10;;;;;;;;;;;;;;;13.57;72.52;102166.94;1046479;28;791;-58
2021/10/23 04:12:01;;;;;;;;;;;;;;;13.57;71.81;102169.63;1045792;28;661;-58
2021/10/23 04:12:51;;;;;;;;;;;;;;;13.56;71.92;102171.44;1045815;28;677;-58
2021/10/23 04:13:41;;;;;;;;;;;;;;;13.57;72.12;102169.63;1046674;28;782;-58
2021/10/23 04:14:32;;;;;;;;;;;;;;;13.59;71.88;102175.75;1045719;28;669;-58
2021/10/23 04:15:22;;;;;;;;;;;;;;;13.57;72.00;102177.66;1045879;28;721;-58
2021/10/23 04:16:13;;;;;;;;;;;;;;;13.55;72.70;102173.25;1046307;28;609;-58
2021/10/23 04:17:03;;;;;;;;;;;;;;;13.53;71.78;102169.78;1047017;28;904;-58
2021/10/23 04:17:54;;;;;;;;;;;;;;;13.53;72.84;102171.59;1045259;28;1324;-58
2021/10/23 04:18:44;;;;;;;;;;;;;;;13.52;72.75;102170.75;1042865;28;637;-58
2021/10/23 04:19:34;;;;;;;;;;;;;;;13.52;72.36;102173.41;1042705;28;631;-58
2021/10/23 04:20:25;;;;;;;;;;;;;;;13.52;71.85;102177.91;1042781;28;722;-58
2021/10/23 04:21:16;;;;;;;;;;;;;;;13.54;72.07;102170.66;1045479;28;638;-59
2021/10/23 04:22:07;;;;;;;;;;;;;;;13.53;71.86;102172.47;1046382;28;1926;-59
2021/10/23 04:22:57;;;;;;;;;;;;;;;13.54;72.68;102181.38;1046140;28;727;-59
2021/10/23 04:23:48;;;;;;;;;;;;;;;13.53;72.83;102172.47;1046270;28;867;-58
2021/10/23 04:24:38;;;;;;;;;;;;;;;13.53;72.09;102176.97;1046406;28;658;-58
2021/10/23 04:25:28;;;;;;;;;;;;;;;13.52;72.33;102178.78;1046303;28;622;-59